createdAt,value
2022-11-21T00:01:27.940Z,91.73
2022-11-21T00:03:59.545Z,91.72
2022-11-21T00:06:30.786Z,91.79
2022-11-21T00:09:02.103Z,92.06
2022-11-21T00:11:33.356Z,92.06
2022-11-21T00:14:04.696Z,91.91
2022-11-21T00:16:35.985Z,91.96
2022-11-21T00:19:07.741Z,92.18
2022-11-21T00:21:39.065Z,92.43
2022-11-21T00:24:10.385Z,92.78
2022-11-21T00:26:41.632Z,91.79
2022-11-21T00:29:12.875Z,92.30
2022-11-21T00:31:44.148Z,92.69
2022-11-21T00:34:16.508Z,92.47
2022-11-21T00:36:47.742Z,92.28
2022-11-21T00:39:18.994Z,91.97
2022-11-21T00:41:50.243Z,92.64
2022-11-21T00:44:21.503Z,92.84
2022-11-21T00:46:52.749Z,92.73
2022-11-21T00:49:24.065Z,92.89
2022-11-21T00:51:55.305Z,92.94
2022-11-21T00:54:26.875Z,93.14
2022-11-21T00:56:58.347Z,93.22
2022-11-21T00:59:29.607Z,93.27
2022-11-21T01:02:00.878Z,92.90
2022-11-21T01:04:35.119Z,93.23
2022-11-21T01:07:06.468Z,92.64
2022-11-21T01:09:37.722Z,93.01
2022-11-21T01:12:09.032Z,92.75
2022-11-21T01:14:40.324Z,93.23
2022-11-21T01:17:11.576Z,93.62
2022-11-21T01:19:42.871Z,92.90
2022-11-21T01:22:14.146Z,92.73
2022-11-21T01:24:46.626Z,93.70
2022-11-21T01:27:17.890Z,93.46
2022-11-21T01:29:49.169Z,93.00
2022-11-21T01:32:20.436Z,93.58
2022-11-21T01:34:51.679Z,92.45
2022-11-21T01:37:22.941Z,93.16
2022-11-21T01:39:55.168Z,93.28
2022-11-21T01:42:26.422Z,93.00
2022-11-21T01:44:57.703Z,92.49
2022-11-21T01:47:28.954Z,92.71
2022-11-21T01:50:00.352Z,92.71
2022-11-21T01:52:32.647Z,92.41
2022-11-21T01:55:10.484Z,93.55
2022-11-21T01:57:45.098Z,92.62
2022-11-21T02:00:23.483Z,93.43
2022-11-21T02:03:04.265Z,92.42
2022-11-21T02:05:36.759Z,92.31
2022-11-21T02:08:13.746Z,92.68
2022-11-21T02:11:03.938Z,93.25
2022-11-21T02:13:35.219Z,93.08
2022-11-21T02:16:07.921Z,93.07
2022-11-21T02:18:39.319Z,92.93
2022-11-21T02:21:25.206Z,93.02
2022-11-21T02:24:17.112Z,93.14
2022-11-21T02:26:48.779Z,92.57
2022-11-21T02:29:20.082Z,92.70
2022-11-21T02:31:52.468Z,92.35
2022-11-21T02:34:23.724Z,92.53
2022-11-21T02:36:55.308Z,93.32
2022-11-21T02:39:32.215Z,92.97
2022-11-21T02:42:21.209Z,93.63
2022-11-21T02:45:12.078Z,92.87
2022-11-21T02:47:45.126Z,92.74
2022-11-21T02:50:22.311Z,93.46
2022-11-21T02:52:55.363Z,93.05
2022-11-21T02:55:27.067Z,92.51
2022-11-21T02:58:03.247Z,93.40
2022-11-21T03:00:37.610Z,93.15
2022-11-21T03:03:08.995Z,93.17
2022-11-21T03:05:40.887Z,93.29
2022-11-21T03:08:12.195Z,93.49
2022-11-21T03:10:43.439Z,92.53
2022-11-21T03:13:14.692Z,92.58
2022-11-21T03:15:45.976Z,92.73
2022-11-21T03:18:17.247Z,93.77
2022-11-21T03:20:48.557Z,93.64
2022-11-21T03:23:19.834Z,93.90
2022-11-21T03:25:51.093Z,93.73
2022-11-21T03:28:22.348Z,92.86
2022-11-21T03:30:53.650Z,93.41
2022-11-21T03:33:24.997Z,93.13
2022-11-21T03:35:56.318Z,93.06
2022-11-21T03:38:27.594Z,92.79
2022-11-21T03:41:04.345Z,93.07
2022-11-21T03:43:35.601Z,93.79
2022-11-21T03:46:06.913Z,93.07
2022-11-21T03:48:39.307Z,92.79
2022-11-21T03:51:10.568Z,93.08
2022-11-21T03:53:41.988Z,93.47
2022-11-21T03:56:13.336Z,92.59
2022-11-21T03:58:45.154Z,92.90
2022-11-21T04:01:16.627Z,93.46
2022-11-21T04:03:48.037Z,93.70
2022-11-21T04:06:22.371Z,92.66
2022-11-21T04:08:53.704Z,93.01
2022-11-21T04:11:25.135Z,93.30
2022-11-21T04:13:56.413Z,92.73
2022-11-21T04:16:27.673Z,92.29
2022-11-21T04:18:58.937Z,92.70
2022-11-21T04:21:30.235Z,93.12
2022-11-21T04:24:01.480Z,92.23
2022-11-21T04:26:32.727Z,92.30
2022-11-21T04:29:03.968Z,93.06
2022-11-21T04:31:35.219Z,92.36
2022-11-21T04:34:06.499Z,92.15
2022-11-21T04:36:37.972Z,92.14
2022-11-21T04:39:09.320Z,92.38
2022-11-21T04:41:40.636Z,92.38
2022-11-21T04:44:11.869Z,92.54
2022-11-21T04:46:43.214Z,92.13
2022-11-21T04:49:14.735Z,92.10
2022-11-21T04:51:46.097Z,92.35
2022-11-21T04:54:17.327Z,92.29
2022-11-21T04:56:48.680Z,92.22
2022-11-21T04:59:19.978Z,92.32
2022-11-21T05:01:51.298Z,93.20
2022-11-21T05:04:22.560Z,92.55
2022-11-21T05:06:53.803Z,92.22
2022-11-21T05:09:25.160Z,93.16
2022-11-21T05:12:15.041Z,92.88
2022-11-21T05:14:46.400Z,92.48
2022-11-21T05:17:17.707Z,93.14
2022-11-21T05:19:48.991Z,92.93
2022-11-21T05:22:20.315Z,93.46
2022-11-21T05:24:51.699Z,92.25
2022-11-21T05:27:23.055Z,93.33
2022-11-21T05:29:55.308Z,92.19
2022-11-21T05:32:26.719Z,92.65
2022-11-21T05:34:58.016Z,93.22
2022-11-21T05:37:29.432Z,92.40
2022-11-21T05:40:01.076Z,92.67
2022-11-21T05:42:50.812Z,93.09
2022-11-21T05:45:22.081Z,92.14
2022-11-21T05:47:53.393Z,92.37
2022-11-21T05:50:24.720Z,92.48
2022-11-21T05:52:56.050Z,92.88
2022-11-21T05:55:27.408Z,93.03
2022-11-21T05:57:59.904Z,91.87
2022-11-21T06:00:31.364Z,92.55
2022-11-21T06:03:21.132Z,92.08
2022-11-21T06:06:05.009Z,92.41
2022-11-21T06:08:41.651Z,92.23
2022-11-21T06:11:15.381Z,92.23
2022-11-21T06:13:46.695Z,92.04
2022-11-21T06:16:20.035Z,92.97
2022-11-21T06:18:56.814Z,92.76
2022-11-21T06:21:29.980Z,92.09
2022-11-21T06:24:01.289Z,91.68
2022-11-21T06:26:32.722Z,91.78
2022-11-21T06:29:04.097Z,92.93
2022-11-21T06:31:35.463Z,92.06
2022-11-21T06:34:06.712Z,92.33
2022-11-21T06:36:38.044Z,91.60
2022-11-21T06:39:09.413Z,92.25
2022-11-21T06:41:40.760Z,91.84
2022-11-21T06:44:12.588Z,92.39
2022-11-21T06:46:49.671Z,92.33
2022-11-21T06:49:22.469Z,92.13
2022-11-21T06:51:53.829Z,91.58
2022-11-21T06:54:25.152Z,91.67
2022-11-21T06:56:58.812Z,92.41
2022-11-21T06:59:30.105Z,92.57
2022-11-21T07:02:01.512Z,92.17
2022-11-21T07:04:32.805Z,92.41
2022-11-21T07:07:04.328Z,92.44
2022-11-21T07:09:36.607Z,92.69
2022-11-21T07:12:27.106Z,91.79
2022-11-21T07:14:58.375Z,91.54
2022-11-21T07:17:29.736Z,91.88
2022-11-21T07:20:01.092Z,91.91
2022-11-21T07:22:32.491Z,91.81
2022-11-21T07:25:04.103Z,91.80
2022-11-21T07:27:35.557Z,92.65
2022-11-21T07:30:07.751Z,92.17
2022-11-21T07:32:39.088Z,92.04
2022-11-21T07:35:10.491Z,91.60
2022-11-21T07:37:41.885Z,91.96
2022-11-21T07:40:13.661Z,92.11
2022-11-21T07:42:45.041Z,92.08
2022-11-21T07:45:16.622Z,91.92
2022-11-21T07:47:47.977Z,91.64
2022-11-21T07:50:19.428Z,92.52
2022-11-21T07:52:50.780Z,92.02
2022-11-21T07:55:22.115Z,92.69
2022-11-21T07:58:05.299Z,91.63
2022-11-21T08:00:38.973Z,92.65
2022-11-21T08:03:12.277Z,91.23
2022-11-21T08:05:44.627Z,91.62
2022-11-21T08:08:15.981Z,91.92
2022-11-21T08:10:47.355Z,91.62
2022-11-21T08:13:18.676Z,92.19
2022-11-21T08:15:50.040Z,92.62
2022-11-21T08:18:21.413Z,92.25
2022-11-21T08:20:52.700Z,92.72
2022-11-21T08:23:24.033Z,92.58
2022-11-21T08:25:55.385Z,92.29
2022-11-21T08:28:26.659Z,92.45
2022-11-21T08:30:58.027Z,91.60
2022-11-21T08:33:29.354Z,91.58
2022-11-21T08:36:07.155Z,91.66
2022-11-21T08:38:38.476Z,92.31
2022-11-21T08:41:30.871Z,91.90
2022-11-21T08:44:02.369Z,91.92
2022-11-21T08:46:37.088Z,91.53
2022-11-21T08:49:08.620Z,91.33
2022-11-21T08:51:40.088Z,92.11
2022-11-21T08:54:11.384Z,91.60
2022-11-21T08:56:42.764Z,92.09
2022-11-21T08:59:15.377Z,91.59
2022-11-21T09:01:46.873Z,91.62
2022-11-21T09:04:18.468Z,92.16
2022-11-21T09:06:49.709Z,91.97
2022-11-21T09:09:25.275Z,91.45
2022-11-21T09:11:57.132Z,91.17
2022-11-21T09:14:47.537Z,90.98
2022-11-21T09:17:37.660Z,91.06
2022-11-21T09:20:09.666Z,90.95
2022-11-21T09:22:41.136Z,91.17
2022-11-21T09:25:12.501Z,91.08
2022-11-21T09:27:43.875Z,91.38
2022-11-21T09:30:15.895Z,91.31
2022-11-21T09:32:47.204Z,90.89
2022-11-21T09:35:18.774Z,90.95
2022-11-21T09:37:51.695Z,91.19
2022-11-21T09:40:23.414Z,90.85
2022-11-21T09:43:35.824Z,90.46
2022-11-21T09:46:17.155Z,91.55
2022-11-21T09:48:55.065Z,91.39
2022-11-21T09:51:30.698Z,91.07
2022-11-21T09:54:07.323Z,91.11
2022-11-21T09:56:42.162Z,90.87
2022-11-21T09:59:32.576Z,91.60
2022-11-21T10:02:14.712Z,91.79
2022-11-21T10:04:47.379Z,91.36
2022-11-21T10:07:26.996Z,91.24
2022-11-21T10:10:08.677Z,91.37
2022-11-21T10:13:00.203Z,91.41
2022-11-21T10:15:54.868Z,91.18
2022-11-21T10:18:44.627Z,91.24
2022-11-21T10:21:15.839Z,91.59
2022-11-21T10:24:08.441Z,91.39
2022-11-21T10:26:52.581Z,91.40
2022-11-21T10:29:23.941Z,91.41
2022-11-21T10:32:01.193Z,91.54
2022-11-21T10:34:37.653Z,91.59
2022-11-21T10:37:30.311Z,91.33
2022-11-21T10:40:15.964Z,91.57
2022-11-21T10:43:29.129Z,91.73
2022-11-21T10:46:00.464Z,91.04
2022-11-21T10:48:31.832Z,91.43
2022-11-21T10:51:12.575Z,91.29
2022-11-21T10:54:07.575Z,91.03
2022-11-21T10:56:39.467Z,91.68
2022-11-21T10:59:30.096Z,91.70
2022-11-21T11:02:22.786Z,91.82
2022-11-21T11:05:15.743Z,91.83
2022-11-21T11:08:07.971Z,91.58
2022-11-21T11:10:40.607Z,92.11
2022-11-21T11:13:46.518Z,91.81
2022-11-21T11:16:21.380Z,91.71
2022-11-21T11:18:58.873Z,92.03
2022-11-21T11:21:44.046Z,91.75
2022-11-21T11:24:15.332Z,91.43
2022-11-21T11:26:46.569Z,92.13
2022-11-21T11:29:27.426Z,91.87
2022-11-21T11:31:58.992Z,91.48
2022-11-21T11:34:39.225Z,92.13
2022-11-21T11:37:40.341Z,91.79
2022-11-21T11:40:19.096Z,91.50
2022-11-21T11:43:23.628Z,92.18
2022-11-21T11:46:35.884Z,91.77
2022-11-21T11:49:52.957Z,91.76
2022-11-21T11:52:28.211Z,91.58
2022-11-21T11:55:08.313Z,91.58
2022-11-21T11:57:41.649Z,92.20
2022-11-21T12:00:45.517Z,92.30
2022-11-21T12:03:19.858Z,91.87
2022-11-21T12:06:12.486Z,92.24
2022-11-21T12:08:52.419Z,91.80
2022-11-21T12:11:48.970Z,92.57
2022-11-21T12:14:47.081Z,92.54
2022-11-21T12:17:25.317Z,91.92
2022-11-21T12:19:58.810Z,92.19
2022-11-21T12:22:30.169Z,92.08
2022-11-21T12:25:01.545Z,91.87
2022-11-21T12:27:34.140Z,92.03
2022-11-21T12:30:42.995Z,92.08
2022-11-21T12:33:21.730Z,92.18
2022-11-21T12:36:18.576Z,92.16
2022-11-21T12:39:03.267Z,92.37
2022-11-21T12:42:07.157Z,92.01
2022-11-21T12:45:03.440Z,92.14
2022-11-21T12:48:18.578Z,92.23
2022-11-21T12:51:31.861Z,92.29
2022-11-21T12:54:31.285Z,92.29
2022-11-21T12:57:05.691Z,92.16
2022-11-21T12:59:58.822Z,92.31
2022-11-21T13:02:48.624Z,92.44
2022-11-21T13:05:45.447Z,92.23
2022-11-21T13:08:24.691Z,92.49
2022-11-21T13:11:27.850Z,92.70
2022-11-21T13:14:04.365Z,92.38
2022-11-21T13:16:39.480Z,92.37
2022-11-21T13:19:31.879Z,92.24
2022-11-21T13:22:03.346Z,92.08
2022-11-21T13:24:47.616Z,92.26
2022-11-21T13:27:30.052Z,92.03
2022-11-21T13:30:07.599Z,92.15
2022-11-21T13:32:43.243Z,92.29
2022-11-21T13:35:14.975Z,92.26
2022-11-21T13:37:50.470Z,91.93
2022-11-21T13:40:30.533Z,92.47
2022-11-21T13:43:34.147Z,91.86
2022-11-21T13:46:05.958Z,92.56
2022-11-21T13:49:00.704Z,92.42
2022-11-21T13:51:52.616Z,92.16
2022-11-21T13:54:26.817Z,91.99
2022-11-21T13:57:40.297Z,92.06
2022-11-21T14:00:26.648Z,91.65
2022-11-21T14:03:16.620Z,91.83
2022-11-21T14:06:02.652Z,91.23
2022-11-21T14:08:34.235Z,91.23
2022-11-21T14:11:30.062Z,91.59
2022-11-21T14:14:01.867Z,91.00
2022-11-21T14:16:38.073Z,91.17
2022-11-21T14:19:14.830Z,90.85
2022-11-21T14:21:47.431Z,90.50
2022-11-21T14:24:19.665Z,90.81
2022-11-21T14:26:53.872Z,90.60
2022-11-21T14:29:37.583Z,90.98
2022-11-21T14:32:25.948Z,90.47
2022-11-21T14:35:10.803Z,90.49
2022-11-21T14:37:42.192Z,90.52
2022-11-21T14:40:21.244Z,90.71
2022-11-21T14:42:52.643Z,90.76
2022-11-21T14:45:24.246Z,90.14
2022-11-21T14:47:55.530Z,90.50
2022-11-21T14:50:29.731Z,90.05
2022-11-21T14:53:01.824Z,90.61
2022-11-21T14:55:33.390Z,90.57
2022-11-21T14:58:05.968Z,90.37
2022-11-21T15:00:58.470Z,90.47
2022-11-21T15:03:28.752Z,89.70
2022-11-21T15:06:06.467Z,90.20
2022-11-21T15:11:41.032Z,89.91
2022-11-21T15:14:27.993Z,90.43
2022-11-21T15:17:00.865Z,90.34
2022-11-21T15:19:32.766Z,90.05
2022-11-21T15:22:04.654Z,90.23
2022-11-21T15:24:42.137Z,90.79
2022-11-21T15:27:28.509Z,89.62
2022-11-21T15:30:21.240Z,90.08
2022-11-21T15:33:13.440Z,90.41
2022-11-21T15:35:49.218Z,90.15
2022-11-21T15:38:41.660Z,90.29
2022-11-21T15:41:14.406Z,90.84
2022-11-21T15:43:48.148Z,90.19
2022-11-21T15:46:33.928Z,89.78
2022-11-21T15:49:31.428Z,89.99
2022-11-21T15:52:13.332Z,90.68
2022-11-21T15:54:44.812Z,89.79
2022-11-21T15:59:54.488Z,90.06
2022-11-21T16:02:25.820Z,89.83
2022-11-21T16:04:57.092Z,90.65
2022-11-21T16:07:28.446Z,90.23
2022-11-21T16:09:59.876Z,90.77
2022-11-21T16:12:31.256Z,90.37
2022-11-21T16:15:02.543Z,90.06
2022-11-21T16:17:33.911Z,90.22
2022-11-21T16:20:05.825Z,90.38
2022-11-21T16:22:38.030Z,91.32
2022-11-21T16:25:11.764Z,91.39
2022-11-21T16:27:43.198Z,90.50
2022-11-21T16:30:14.883Z,90.84
2022-11-21T16:32:47.124Z,91.24
2022-11-21T16:35:18.524Z,90.71
2022-11-21T16:37:52.035Z,90.62
2022-11-21T16:40:23.316Z,91.76
2022-11-21T16:43:07.944Z,90.80
2022-11-21T16:45:39.720Z,91.26
2022-11-21T16:48:11.009Z,90.31
2022-11-21T16:50:42.470Z,91.24
2022-11-21T16:53:14.832Z,90.32
2022-11-21T16:55:46.096Z,91.20
2022-11-21T16:58:17.448Z,90.61
2022-11-21T17:00:48.826Z,90.63
2022-11-21T17:03:23.484Z,91.25
2022-11-21T17:05:58.689Z,91.18
2022-11-21T17:08:29.987Z,91.50
2022-11-21T17:11:12.592Z,91.10
2022-11-21T17:13:45.516Z,90.94
2022-11-21T17:16:19.523Z,91.69
2022-11-21T17:18:55.262Z,91.38
2022-11-21T17:21:28.219Z,91.37
2022-11-21T17:23:59.605Z,91.62
2022-11-21T17:26:30.925Z,91.49
2022-11-21T17:29:05.187Z,91.53
2022-11-21T17:31:36.487Z,91.72
2022-11-21T17:34:08.148Z,91.80
2022-11-21T17:36:39.412Z,91.91
2022-11-21T17:39:12.617Z,92.06
2022-11-21T17:41:44.492Z,91.24
2022-11-21T17:44:16.195Z,91.36
2022-11-21T17:46:47.666Z,90.96
2022-11-21T17:49:19.009Z,91.83
2022-11-21T17:51:55.206Z,91.10
2022-11-21T17:54:28.223Z,91.53
2022-11-21T17:57:00.008Z,92.01
2022-11-21T17:59:31.757Z,91.32
2022-11-21T18:02:03.309Z,92.01
2022-11-21T18:04:38.742Z,92.12
2022-11-21T18:07:10.301Z,92.19
2022-11-21T18:09:41.663Z,91.62
2022-11-21T18:12:13.078Z,91.85
2022-11-21T18:14:44.342Z,91.79
2022-11-21T18:17:15.624Z,92.20
2022-11-21T18:19:46.897Z,92.11
2022-11-21T18:22:18.210Z,91.96
2022-11-21T18:24:49.656Z,92.20
2022-11-21T18:27:21.068Z,92.37
2022-11-21T18:29:52.552Z,91.78
2022-11-21T18:32:23.997Z,92.13
2022-11-21T18:34:55.287Z,91.62
2022-11-21T18:37:26.698Z,91.91
2022-11-21T18:39:58.057Z,91.96
2022-11-21T18:42:31.729Z,92.10
2022-11-21T18:45:03.708Z,91.73
2022-11-21T18:47:35.103Z,92.30
2022-11-21T18:50:06.864Z,91.86
2022-11-21T18:52:42.220Z,92.35
2022-11-21T18:55:17.690Z,92.49
2022-11-21T18:57:48.985Z,91.60
2022-11-21T19:00:20.449Z,91.63
2022-11-21T19:02:51.769Z,92.00
2022-11-21T19:05:23.035Z,92.60
2022-11-21T19:07:54.352Z,92.07
2022-11-21T19:10:42.532Z,92.10
2022-11-21T19:13:15.306Z,91.91
2022-11-21T19:15:46.652Z,92.69
2022-11-21T19:18:17.961Z,92.36
2022-11-21T19:20:49.352Z,92.72
2022-11-21T19:23:20.877Z,92.31
2022-11-21T19:25:52.943Z,92.61
2022-11-21T19:28:24.288Z,92.67
2022-11-21T19:30:57.056Z,92.18
2022-11-21T19:33:30.267Z,91.77
2022-11-21T19:36:06.454Z,92.53
2022-11-21T19:38:37.923Z,93.04
2022-11-21T19:41:13.636Z,92.50
2022-11-21T19:43:49.265Z,91.91
2022-11-21T19:46:31.125Z,92.68
2022-11-21T19:49:03.667Z,91.99
2022-11-21T19:51:37.965Z,91.91
2022-11-21T19:54:12.225Z,92.73
2022-11-21T19:56:43.576Z,92.34
2022-11-21T19:59:15.000Z,92.24
2022-11-21T20:01:51.140Z,92.33
2022-11-21T20:04:23.865Z,92.20
2022-11-21T20:06:57.270Z,91.85
2022-11-21T20:09:33.374Z,91.80
2022-11-21T20:12:06.385Z,92.05
2022-11-21T20:14:37.671Z,91.99
2022-11-21T20:17:09.000Z,92.80
2022-11-21T20:19:40.337Z,92.38
2022-11-21T20:22:11.706Z,92.23
2022-11-21T20:24:47.429Z,92.40
2022-11-21T20:27:21.708Z,91.67
2022-11-21T20:29:52.970Z,92.72
2022-11-21T20:32:28.138Z,92.31
2022-11-21T20:34:59.400Z,92.22
2022-11-21T20:37:30.656Z,92.20
2022-11-21T20:40:01.993Z,91.84
2022-11-21T20:42:34.394Z,92.14
2022-11-21T20:47:57.619Z,92.12
2022-11-21T20:51:10.978Z,92.81
2022-11-21T20:53:51.999Z,92.34
2022-11-21T20:56:14.352Z,92.36
2022-11-21T20:58:46.488Z,92.19
2022-11-21T21:01:20.688Z,91.99
2022-11-21T21:03:52.191Z,92.08
2022-11-21T21:06:24.158Z,93.03
2022-11-21T21:08:55.612Z,92.75
2022-11-21T21:14:18.375Z,92.23
2022-11-21T21:16:50.111Z,92.53
2022-11-21T21:19:21.780Z,92.75
2022-11-21T21:21:53.176Z,92.57
2022-11-21T21:24:24.649Z,92.33
2022-11-21T21:26:55.913Z,92.55
2022-11-21T21:29:27.529Z,92.14
2022-11-21T21:31:58.853Z,91.67
2022-11-21T21:34:30.482Z,91.91
2022-11-21T21:37:01.881Z,92.63
2022-11-21T21:39:33.197Z,92.56
2022-11-21T21:42:04.533Z,92.88
2022-11-21T21:44:36.217Z,92.16
2022-11-21T21:47:11.044Z,92.98
2022-11-21T21:49:42.424Z,92.83
2022-11-21T21:52:14.185Z,92.98
2022-11-21T21:54:45.611Z,92.98
2022-11-21T21:57:16.968Z,92.66
2022-11-21T21:59:48.235Z,92.51
2022-11-21T22:02:19.716Z,92.53
2022-11-21T22:04:52.166Z,93.40
2022-11-21T22:07:23.903Z,93.50
2022-11-21T22:09:55.433Z,93.06
2022-11-21T22:12:26.914Z,92.45
2022-11-21T22:14:58.227Z,93.36
2022-11-21T22:17:29.476Z,92.37
2022-11-21T22:20:00.824Z,92.71
2022-11-21T22:22:32.108Z,92.85
2022-11-21T22:25:03.574Z,93.21
2022-11-21T22:27:34.831Z,93.43
2022-11-21T22:30:06.551Z,92.31
2022-11-21T22:32:37.889Z,92.57
2022-11-21T22:35:09.203Z,93.31
2022-11-21T22:37:40.462Z,92.55
2022-11-21T22:40:12.519Z,93.26
2022-11-21T22:42:43.818Z,93.09
2022-11-21T22:45:15.080Z,93.06
2022-11-21T22:47:48.173Z,92.88
2022-11-21T22:50:20.128Z,92.58
2022-11-21T22:53:01.017Z,93.40
2022-11-21T22:55:33.121Z,93.40
2022-11-21T22:58:05.007Z,93.10
2022-11-21T23:00:37.173Z,93.50
2022-11-21T23:03:09.056Z,93.07
2022-11-21T23:05:40.757Z,92.52
2022-11-21T23:08:12.745Z,92.93
2022-11-21T23:10:44.029Z,92.39
2022-11-21T23:13:15.273Z,92.60
2022-11-21T23:15:46.591Z,93.13
2022-11-21T23:18:17.852Z,93.08
2022-11-21T23:20:49.173Z,92.53
2022-11-21T23:23:20.554Z,92.60
2022-11-21T23:25:52.356Z,92.83
2022-11-21T23:28:23.768Z,93.51
2022-11-21T23:30:55.202Z,92.97
2022-11-21T23:33:26.447Z,93.73
2022-11-21T23:35:57.737Z,93.47
2022-11-21T23:38:28.995Z,93.46
2022-11-21T23:41:00.277Z,92.97
2022-11-21T23:43:31.651Z,92.93
2022-11-21T23:46:02.928Z,93.17
2022-11-21T23:48:34.204Z,93.04
2022-11-21T23:51:05.533Z,92.96
2022-11-21T23:53:37.179Z,93.69
2022-11-21T23:56:08.821Z,93.25
2022-11-21T23:58:43.565Z,92.87
